sensor_id;sensor_type;location;lat;lon;timestamp;P1;durP1;ratioP1;P2;durP2;ratioP2
23360;SDS011;11852;50.082;18.554;2023-04-25T00:00:31;7.0;;;3.0;;
23360;SDS011;11852;50.082;18.554;2023-04-25T00:01:37;6.0;;;3.0;;
23360;SDS011;11852;50.082;18.554;2023-04-25T00:02:45;6.0;;;3.0;;
23360;SDS011;11852;50.082;18.554;2023-04-25T00:03:52;6.0;;;3.0;;
23360;SDS011;11852;50.082;18.554;2023-04-25T00:04:59;8.0;;;4.0;;
23360;SDS011;11852;50.082;18.554;2023-04-25T00:06:06;6.0;;;3.0;;
23360;SDS011;11852;50.082;18.554;2023-04-25T00:07:12;8.0;;;3.0;;
23360;SDS011;11852;50.082;18.554;2023-04-25T00:08:19;7.0;;;4.0;;
23360;SDS011;11852;50.082;18.554;2023-04-25T00:09:26;8.0;;;4.0;;
23360;SDS011;11852;50.082;18.554;2023-04-25T00:10:33;8.0;;;5.0;;
23360;SDS011;11852;50.082;18.554;2023-04-25T00:11:40;9.0;;;4.0;;
23360;SDS011;11852;50.082;18.554;2023-04-25T00:12:46;8.0;;;4.0;;
23360;SDS011;11852;50.082;18.554;2023-04-25T00:13:53;9.0;;;5.0;;
23360;SDS011;11852;50.082;18.554;2023-04-25T00:15:00;8.0;;;4.0;;
23360;SDS011;11852;50.082;18.554;2023-04-25T00:16:07;8.0;;;4.0;;
23360;SDS011;11852;50.082;18.554;2023-04-25T00:17:14;8.0;;;5.0;;
23360;SDS011;11852;50.082;18.554;2023-04-25T00:18:21;7.0;;;4.0;;
23360;SDS011;11852;50.082;18.554;2023-04-25T00:19:28;9.0;;;4.0;;
23360;SDS011;11852;50.082;18.554;2023-04-25T00:20:35;7.0;;;4.0;;
23360;SDS011;11852;50.082;18.554;2023-04-25T00:21:41;7.0;;;4.0;;
23360;SDS011;11852;50.082;18.554;2023-04-25T00:22:51;7.0;;;4.0;;
23360;SDS011;11852;50.082;18.554;2023-04-25T00:23:58;6.0;;;3.0;;
23360;SDS011;11852;50.082;18.554;2023-04-25T00:25:05;6.0;;;3.0;;
23360;SDS011;11852;50.082;18.554;2023-04-25T00:26:11;6.0;;;3.0;;
23360;SDS011;11852;50.082;18.554;2023-04-25T00:27:18;6.0;;;3.0;;
23360;SDS011;11852;50.082;18.554;2023-04-25T00:28:25;7.0;;;3.0;;
23360;SDS011;11852;50.082;18.554;2023-04-25T00:29:32;6.0;;;3.0;;
23360;SDS011;11852;50.082;18.554;2023-04-25T00:30:39;6.0;;;3.0;;
23360;SDS011;11852;50.082;18.554;2023-04-25T00:31:46;6.0;;;3.0;;
23360;SDS011;11852;50.082;18.554;2023-04-25T00:32:52;6.0;;;3.0;;
23360;SDS011;11852;50.082;18.554;2023-04-25T00:33:59;6.0;;;3.0;;
23360;SDS011;11852;50.082;18.554;2023-04-25T00:35:06;6.0;;;3.0;;
23360;SDS011;11852;50.082;18.554;2023-04-25T00:36:13;6.0;;;3.0;;
23360;SDS011;11852;50.082;18.554;2023-04-25T00:37:20;7.0;;;4.0;;
23360;SDS011;11852;50.082;18.554;2023-04-25T00:38:27;7.0;;;3.0;;
23360;SDS011;11852;50.082;18.554;2023-04-25T00:39:33;5.0;;;3.0;;
23360;SDS011;11852;50.082;18.554;2023-04-25T00:40:40;6.0;;;3.0;;
23360;SDS011;11852;50.082;18.554;2023-04-25T00:41:48;6.0;;;3.0;;
23360;SDS011;11852;50.082;18.554;2023-04-25T00:42:55;6.0;;;4.0;;
23360;SDS011;11852;50.082;18.554;2023-04-25T00:44:02;6.0;;;3.0;;
23360;SDS011;11852;50.082;18.554;2023-04-25T00:45:09;6.0;;;3.0;;
23360;SDS011;11852;50.082;18.554;2023-04-25T00:46:15;6.0;;;3.0;;
23360;SDS011;11852;50.082;18.554;2023-04-25T00:47:22;6.0;;;3.0;;
23360;SDS011;11852;50.082;18.554;2023-04-25T00:48:29;6.0;;;3.0;;
23360;SDS011;11852;50.082;18.554;2023-04-25T00:49:37;6.0;;;3.0;;
23360;SDS011;11852;50.082;18.554;2023-04-25T00:50:51;7.0;;;3.0;;
23360;SDS011;11852;50.082;18.554;2023-04-25T00:51:53;9.0;;;3.0;;
23360;SDS011;11852;50.082;18.554;2023-04-25T00:53:00;6.0;;;2.0;;
23360;SDS011;11852;50.082;18.554;2023-04-25T00:54:07;5.0;;;3.0;;
23360;SDS011;11852;50.082;18.554;2023-04-25T00:55:14;5.0;;;2.0;;
23360;SDS011;11852;50.082;18.554;2023-04-25T00:56:21;5.0;;;2.0;;
23360;SDS011;11852;50.082;18.554;2023-04-25T00:57:27;5.0;;;2.0;;
23360;SDS011;11852;50.082;18.554;2023-04-25T00:58:34;5.0;;;2.0;;
23360;SDS011;11852;50.082;18.554;2023-04-25T00:59:45;5.0;;;2.0;;
23360;SDS011;11852;50.082;18.554;2023-04-25T01:00:51;5.0;;;2.0;;
23360;SDS011;11852;50.082;18.554;2023-04-25T01:01:59;5.0;;;2.0;;
23360;SDS011;11852;50.082;18.554;2023-04-25T01:03:06;4.0;;;2.0;;
23360;SDS011;11852;50.082;18.554;2023-04-25T01:04:13;5.0;;;2.0;;
23360;SDS011;11852;50.082;18.554;2023-04-25T01:05:19;4.0;;;2.0;;
23360;SDS011;11852;50.082;18.554;2023-04-25T01:06:26;4.0;;;2.0;;
23360;SDS011;11852;50.082;18.554;2023-04-25T01:07:33;5.0;;;2.0;;
23360;SDS011;11852;50.082;18.554;2023-04-25T01:08:40;4.0;;;2.0;;
23360;SDS011;11852;50.082;18.554;2023-04-25T01:09:46;4.0;;;2.0;;
23360;SDS011;11852;50.082;18.554;2023-04-25T01:10:56;4.0;;;2.0;;
23360;SDS011;11852;50.082;18.554;2023-04-25T01:12:03;5.0;;;2.0;;
23360;SDS011;11852;50.082;18.554;2023-04-25T01:13:10;5.0;;;2.0;;
23360;SDS011;11852;50.082;18.554;2023-04-25T01:14:17;4.0;;;2.0;;
23360;SDS011;11852;50.082;18.554;2023-04-25T01:15:24;4.0;;;2.0;;
23360;SDS011;11852;50.082;18.554;2023-04-25T01:16:31;5.0;;;2.0;;
23360;SDS011;11852;50.082;18.554;2023-04-25T01:17:38;4.0;;;1.0;;
23360;SDS011;11852;50.082;18.554;2023-04-25T01:18:45;4.0;;;2.0;;
23360;SDS011;11852;50.082;18.554;2023-04-25T01:19:51;4.0;;;2.0;;
23360;SDS011;11852;50.082;18.554;2023-04-25T01:22:13;5.0;;;2.0;;
23360;SDS011;11852;50.082;18.554;2023-04-25T01:23:21;5.0;;;2.0;;
23360;SDS011;11852;50.082;18.554;2023-04-25T01:24:27;5.0;;;2.0;;
23360;SDS011;11852;50.082;18.554;2023-04-25T01:25:34;4.0;;;2.0;;
23360;SDS011;11852;50.082;18.554;2023-04-25T01:26:41;5.0;;;2.0;;
23360;SDS011;11852;50.082;18.554;2023-04-25T01:27:48;7.0;;;3.0;;
23360;SDS011;11852;50.082;18.554;2023-04-25T01:28:55;5.0;;;2.0;;
23360;SDS011;11852;50.082;18.554;2023-04-25T01:30:02;4.0;;;1.0;;
23360;SDS011;11852;50.082;18.554;2023-04-25T01:31:09;4.0;;;2.0;;
23360;SDS011;11852;50.082;18.554;2023-04-25T01:32:16;3.0;;;1.0;;
23360;SDS011;11852;50.082;18.554;2023-04-25T01:33:23;4.0;;;2.0;;
23360;SDS011;11852;50.082;18.554;2023-04-25T01:34:30;4.0;;;2.0;;
23360;SDS011;11852;50.082;18.554;2023-04-25T01:35:36;4.0;;;2.0;;
23360;SDS011;11852;50.082;18.554;2023-04-25T01:36:43;4.0;;;2.0;;
23360;SDS011;11852;50.082;18.554;2023-04-25T01:37:50;5.0;;;2.0;;
23360;SDS011;11852;50.082;18.554;2023-04-25T01:38:57;4.0;;;1.0;;
23360;SDS011;11852;50.082;18.554;2023-04-25T01:40:04;5.0;;;1.0;;
23360;SDS011;11852;50.082;18.554;2023-04-25T01:41:11;4.0;;;2.0;;
23360;SDS011;11852;50.082;18.554;2023-04-25T01:42:19;5.0;;;2.0;;
23360;SDS011;11852;50.082;18.554;2023-04-25T01:43:26;3.0;;;1.0;;
23360;SDS011;11852;50.082;18.554;2023-04-25T01:44:37;5.0;;;2.0;;
23360;SDS011;11852;50.082;18.554;2023-04-25T01:45:42;5.0;;;2.0;;
23360;SDS011;11852;50.082;18.554;2023-04-25T01:46:48;4.0;;;1.0;;
23360;SDS011;11852;50.082;18.554;2023-04-25T01:47:55;4.0;;;1.0;;
23360;SDS011;11852;50.082;18.554;2023-04-25T01:49:02;4.0;;;2.0;;
23360;SDS011;11852;50.082;18.554;2023-04-25T01:50:09;4.0;;;1.0;;
23360;SDS011;11852;50.082;18.554;2023-04-25T01:51:16;4.0;;;1.0;;
23360;SDS011;11852;50.082;18.554;2023-04-25T01:52:23;3.0;;;1.0;;
23360;SDS011;11852;50.082;18.554;2023-04-25T01:53:30;4.0;;;1.0;;
23360;SDS011;11852;50.082;18.554;2023-04-25T01:54:37;4.0;;;1.0;;
23360;SDS011;11852;50.082;18.554;2023-04-25T01:55:46;3.0;;;1.0;;
23360;SDS011;11852;50.082;18.554;2023-04-25T01:56:52;3.0;;;1.0;;
23360;SDS011;11852;50.082;18.554;2023-04-25T01:58:00;4.0;;;1.0;;
23360;SDS011;11852;50.082;18.554;2023-04-25T01:59:06;4.0;;;1.0;;
23360;SDS011;11852;50.082;18.554;2023-04-25T02:00:13;3.0;;;1.0;;
23360;SDS011;11852;50.082;18.554;2023-04-25T02:01:20;3.0;;;1.0;;
23360;SDS011;11852;50.082;18.554;2023-04-25T02:02:27;3.0;;;1.0;;
23360;SDS011;11852;50.082;18.554;2023-04-25T02:03:34;3.0;;;1.0;;
23360;SDS011;11852;50.082;18.554;2023-04-25T02:04:44;3.0;;;1.0;;
23360;SDS011;11852;50.082;18.554;2023-04-25T02:05:51;2.0;;;1.0;;
23360;SDS011;11852;50.082;18.554;2023-04-25T02:06:58;2.0;;;1.0;;
23360;SDS011;11852;50.082;18.554;2023-04-25T02:08:07;3.0;;;1.0;;
23360;SDS011;11852;50.082;18.554;2023-04-25T02:09:13;3.0;;;1.0;;
23360;SDS011;11852;50.082;18.554;2023-04-25T02:10:20;4.0;;;1.0;;
23360;SDS011;11852;50.082;18.554;2023-04-25T02:11:27;3.0;;;1.0;;
23360;SDS011;11852;50.082;18.554;2023-04-25T02:12:34;3.0;;;1.0;;
23360;SDS011;11852;50.082;18.554;2023-04-25T02:13:40;4.0;;;1.0;;
23360;SDS011;11852;50.082;18.554;2023-04-25T02:14:47;3.0;;;1.0;;
23360;SDS011;11852;50.082;18.554;2023-04-25T02:15:54;3.0;;;1.0;;
23360;SDS011;11852;50.082;18.554;2023-04-25T02:17:01;3.0;;;1.0;;
23360;SDS011;11852;50.082;18.554;2023-04-25T02:18:08;2.0;;;1.0;;
23360;SDS011;11852;50.082;18.554;2023-04-25T02:19:15;3.0;;;1.0;;
23360;SDS011;11852;50.082;18.554;2023-04-25T02:20:22;2.0;;;1.0;;
23360;SDS011;11852;50.082;18.554;2023-04-25T02:21:31;3.0;;;1.0;;
23360;SDS011;11852;50.082;18.554;2023-04-25T02:22:38;4.0;;;1.0;;
23360;SDS011;11852;50.082;18.554;2023-04-25T02:23:45;4.0;;;1.0;;
23360;SDS011;11852;50.082;18.554;2023-04-25T02:24:52;3.0;;;1.0;;
23360;SDS011;11852;50.082;18.554;2023-04-25T02:26:01;3.0;;;1.0;;
23360;SDS011;11852;50.082;18.554;2023-04-25T02:27:08;3.0;;;1.0;;
23360;SDS011;11852;50.082;18.554;2023-04-25T02:28:15;3.0;;;1.0;;
23360;SDS011;11852;50.082;18.554;2023-04-25T02:29:22;3.0;;;1.0;;
23360;SDS011;11852;50.082;18.554;2023-04-25T02:30:29;2.0;;;1.0;;
23360;SDS011;11852;50.082;18.554;2023-04-25T02:31:36;3.0;;;1.0;;
23360;SDS011;11852;50.082;18.554;2023-04-25T02:32:42;3.0;;;1.0;;
23360;SDS011;11852;50.082;18.554;2023-04-25T02:33:49;3.0;;;1.0;;
23360;SDS011;11852;50.082;18.554;2023-04-25T02:34:56;3.0;;;1.0;;
23360;SDS011;11852;50.082;18.554;2023-04-25T02:36:05;3.0;;;1.0;;
23360;SDS011;11852;50.082;18.554;2023-04-25T02:37:12;4.0;;;1.0;;
23360;SDS011;11852;50.082;18.554;2023-04-25T02:38:21;3.0;;;1.0;;
23360;SDS011;11852;50.082;18.554;2023-04-25T02:39:28;3.0;;;1.0;;
23360;SDS011;11852;50.082;18.554;2023-04-25T02:40:35;3.0;;;1.0;;
23360;SDS011;11852;50.082;18.554;2023-04-25T02:41:42;4.0;;;1.0;;
23360;SDS011;11852;50.082;18.554;2023-04-25T02:42:49;3.0;;;1.0;;
23360;SDS011;11852;50.082;18.554;2023-04-25T02:43:56;4.0;;;1.0;;
23360;SDS011;11852;50.082;18.554;2023-04-25T02:45:03;4.0;;;1.0;;
23360;SDS011;11852;50.082;18.554;2023-04-25T02:46:12;3.0;;;1.0;;
23360;SDS011;11852;50.082;18.554;2023-04-25T02:47:19;4.0;;;1.0;;
23360;SDS011;11852;50.082;18.554;2023-04-25T02:48:26;2.0;;;1.0;;
23360;SDS011;11852;50.082;18.554;2023-04-25T02:49:34;4.0;;;1.0;;
23360;SDS011;11852;50.082;18.554;2023-04-25T02:50:41;3.0;;;1.0;;
23360;SDS011;11852;50.082;18.554;2023-04-25T02:51:47;3.0;;;1.0;;
23360;SDS011;11852;50.082;18.554;2023-04-25T02:52:54;4.0;;;1.0;;
23360;SDS011;11852;50.082;18.554;2023-04-25T02:54:01;4.0;;;1.0;;
23360;SDS011;11852;50.082;18.554;2023-04-25T02:55:08;3.0;;;1.0;;
23360;SDS011;11852;50.082;18.554;2023-04-25T02:56:15;4.0;;;1.0;;
23360;SDS011;11852;50.082;18.554;2023-04-25T02:57:23;3.0;;;1.0;;
23360;SDS011;11852;50.082;18.554;2023-04-25T02:58:29;3.0;;;1.0;;
23360;SDS011;11852;50.082;18.554;2023-04-25T02:59:36;3.0;;;1.0;;
23360;SDS011;11852;50.082;18.554;2023-04-25T03:00:43;5.0;;;1.0;;
23360;SDS011;11852;50.082;18.554;2023-04-25T03:01:55;3.0;;;1.0;;
23360;SDS011;11852;50.082;18.554;2023-04-25T03:03:02;3.0;;;1.0;;
23360;SDS011;11852;50.082;18.554;2023-04-25T03:04:11;3.0;;;1.0;;
23360;SDS011;11852;50.082;18.554;2023-04-25T03:05:18;4.0;;;1.0;;
23360;SDS011;11852;50.082;18.554;2023-04-25T03:06:27;4.0;;;1.0;;
23360;SDS011;11852;50.082;18.554;2023-04-25T03:07:34;5.0;;;1.0;;
23360;SDS011;11852;50.082;18.554;2023-04-25T03:08:40;4.0;;;1.0;;
23360;SDS011;11852;50.082;18.554;2023-04-25T03:09:49;4.0;;;1.0;;
23360;SDS011;11852;50.082;18.554;2023-04-25T03:10:56;4.0;;;1.0;;
23360;SDS011;11852;50.082;18.554;2023-04-25T03:12:03;3.0;;;1.0;;
23360;SDS011;11852;50.082;18.554;2023-04-25T03:13:10;4.0;;;1.0;;
23360;SDS011;11852;50.082;18.554;2023-04-25T03:14:17;4.0;;;1.0;;
23360;SDS011;11852;50.082;18.554;2023-04-25T03:15:24;4.0;;;1.0;;
23360;SDS011;11852;50.082;18.554;2023-04-25T03:16:31;3.0;;;1.0;;
23360;SDS011;11852;50.082;18.554;2023-04-25T03:17:37;3.0;;;1.0;;
23360;SDS011;11852;50.082;18.554;2023-04-25T03:18:44;4.0;;;1.0;;
23360;SDS011;11852;50.082;18.554;2023-04-25T03:19:53;4.0;;;1.0;;
23360;SDS011;11852;50.082;18.554;2023-04-25T03:21:00;4.0;;;1.0;;
23360;SDS011;11852;50.082;18.554;2023-04-25T03:22:06;4.0;;;1.0;;
23360;SDS011;11852;50.082;18.554;2023-04-25T03:23:13;3.0;;;1.0;;
23360;SDS011;11852;50.082;18.554;2023-04-25T03:24:21;4.0;;;1.0;;
23360;SDS011;11852;50.082;18.554;2023-04-25T03:25:27;5.0;;;1.0;;
23360;SDS011;11852;50.082;18.554;2023-04-25T03:26:34;4.0;;;1.0;;
23360;SDS011;11852;50.082;18.554;2023-04-25T03:27:40;5.0;;;1.0;;
23360;SDS011;11852;50.082;18.554;2023-04-25T03:28:49;4.0;;;1.0;;
23360;SDS011;11852;50.082;18.554;2023-04-25T03:29:56;4.0;;;1.0;;
23360;SDS011;11852;50.082;18.554;2023-04-25T03:31:03;5.0;;;1.0;;
23360;SDS011;11852;50.082;18.554;2023-04-25T03:32:10;4.0;;;1.0;;
23360;SDS011;11852;50.082;18.554;2023-04-25T03:33:17;4.0;;;1.0;;
23360;SDS011;11852;50.082;18.554;2023-04-25T03:34:28;5.0;;;1.0;;
23360;SDS011;11852;50.082;18.554;2023-04-25T03:35:35;4.0;;;1.0;;
23360;SDS011;11852;50.082;18.554;2023-04-25T03:36:41;3.0;;;1.0;;
23360;SDS011;11852;50.082;18.554;2023-04-25T03:37:48;3.0;;;1.0;;
23360;SDS011;11852;50.082;18.554;2023-04-25T03:38:59;3.0;;;1.0;;
23360;SDS011;11852;50.082;18.554;2023-04-25T03:40:06;4.0;;;1.0;;
23360;SDS011;11852;50.082;18.554;2023-04-25T03:41:13;4.0;;;1.0;;
23360;SDS011;11852;50.082;18.554;2023-04-25T03:42:19;4.0;;;1.0;;
23360;SDS011;11852;50.082;18.554;2023-04-25T03:43:26;6.0;;;2.0;;
23360;SDS011;11852;50.082;18.554;2023-04-25T03:44:35;4.0;;;1.0;;
23360;SDS011;11852;50.082;18.554;2023-04-25T03:45:43;3.0;;;1.0;;
23360;SDS011;11852;50.082;18.554;2023-04-25T03:46:49;3.0;;;2.0;;
23360;SDS011;11852;50.082;18.554;2023-04-25T03:47:57;3.0;;;2.0;;
23360;SDS011;11852;50.082;18.554;2023-04-25T03:49:04;4.0;;;1.0;;
23360;SDS011;11852;50.082;18.554;2023-04-25T03:50:11;5.0;;;2.0;;
23360;SDS011;11852;50.082;18.554;2023-04-25T03:51:18;3.0;;;1.0;;
23360;SDS011;11852;50.082;18.554;2023-04-25T03:52:25;6.0;;;2.0;;
23360;SDS011;11852;50.082;18.554;2023-04-25T03:53:32;4.0;;;1.0;;
23360;SDS011;11852;50.082;18.554;2023-04-25T03:54:38;3.0;;;1.0;;
23360;SDS011;11852;50.082;18.554;2023-04-25T03:55:45;3.0;;;2.0;;
23360;SDS011;11852;50.082;18.554;2023-04-25T03:56:52;7.0;;;2.0;;
23360;SDS011;11852;50.082;18.554;2023-04-25T03:57:59;3.0;;;1.0;;
23360;SDS011;11852;50.082;18.554;2023-04-25T03:59:06;5.0;;;2.0;;
23360;SDS011;11852;50.082;18.554;2023-04-25T04:00:13;4.0;;;1.0;;
23360;SDS011;11852;50.082;18.554;2023-04-25T04:01:20;4.0;;;1.0;;
23360;SDS011;11852;50.082;18.554;2023-04-25T04:02:26;4.0;;;2.0;;
23360;SDS011;11852;50.082;18.554;2023-04-25T04:03:36;4.0;;;2.0;;
23360;SDS011;11852;50.082;18.554;2023-04-25T04:04:43;4.0;;;1.0;;
23360;SDS011;11852;50.082;18.554;2023-04-25T04:05:49;4.0;;;2.0;;
23360;SDS011;11852;50.082;18.554;2023-04-25T04:06:56;4.0;;;2.0;;
23360;SDS011;11852;50.082;18.554;2023-04-25T04:08:03;3.0;;;1.0;;
23360;SDS011;11852;50.082;18.554;2023-04-25T04:09:10;3.0;;;1.0;;
23360;SDS011;11852;50.082;18.554;2023-04-25T04:10:17;3.0;;;1.0;;
23360;SDS011;11852;50.082;18.554;2023-04-25T04:11:24;4.0;;;1.0;;
23360;SDS011;11852;50.082;18.554;2023-04-25T04:12:31;5.0;;;2.0;;
23360;SDS011;11852;50.082;18.554;2023-04-25T04:13:38;3.0;;;1.0;;
23360;SDS011;11852;50.082;18.554;2023-04-25T04:14:45;4.0;;;1.0;;
23360;SDS011;11852;50.082;18.554;2023-04-25T04:15:52;4.0;;;1.0;;
23360;SDS011;11852;50.082;18.554;2023-04-25T04:16:59;7.0;;;2.0;;
23360;SDS011;11852;50.082;18.554;2023-04-25T04:18:06;3.0;;;2.0;;
23360;SDS011;11852;50.082;18.554;2023-04-25T04:19:13;4.0;;;1.0;;
23360;SDS011;11852;50.082;18.554;2023-04-25T04:20:20;3.0;;;1.0;;
23360;SDS011;11852;50.082;18.554;2023-04-25T04:21:27;4.0;;;2.0;;
23360;SDS011;11852;50.082;18.554;2023-04-25T04:22:34;3.0;;;1.0;;
23360;SDS011;11852;50.082;18.554;2023-04-25T04:23:40;4.0;;;2.0;;
23360;SDS011;11852;50.082;18.554;2023-04-25T04:24:47;4.0;;;2.0;;
23360;SDS011;11852;50.082;18.554;2023-04-25T04:25:54;5.0;;;2.0;;
23360;SDS011;11852;50.082;18.554;2023-04-25T04:27:01;5.0;;;1.0;;
23360;SDS011;11852;50.082;18.554;2023-04-25T04:28:08;4.0;;;1.0;;
23360;SDS011;11852;50.082;18.554;2023-04-25T04:29:16;5.0;;;1.0;;
23360;SDS011;11852;50.082;18.554;2023-04-25T04:30:26;3.0;;;2.0;;
23360;SDS011;11852;50.082;18.554;2023-04-25T04:31:33;3.0;;;2.0;;
23360;SDS011;11852;50.082;18.554;2023-04-25T04:32:40;3.0;;;2.0;;
23360;SDS011;11852;50.082;18.554;2023-04-25T04:33:47;4.0;;;1.0;;
23360;SDS011;11852;50.082;18.554;2023-04-25T04:34:54;4.0;;;2.0;;
23360;SDS011;11852;50.082;18.554;2023-04-25T04:36:01;5.0;;;2.0;;
23360;SDS011;11852;50.082;18.554;2023-04-25T04:37:08;4.0;;;2.0;;
23360;SDS011;11852;50.082;18.554;2023-04-25T04:38:15;4.0;;;2.0;;
23360;SDS011;11852;50.082;18.554;2023-04-25T04:39:21;5.0;;;2.0;;
23360;SDS011;11852;50.082;18.554;2023-04-25T04:40:28;4.0;;;2.0;;
23360;SDS011;11852;50.082;18.554;2023-04-25T04:41:35;4.0;;;2.0;;
23360;SDS011;11852;50.082;18.554;2023-04-25T04:42:44;4.0;;;2.0;;
23360;SDS011;11852;50.082;18.554;2023-04-25T04:43:55;4.0;;;2.0;;
23360;SDS011;11852;50.082;18.554;2023-04-25T04:45:02;4.0;;;2.0;;
23360;SDS011;11852;50.082;18.554;2023-04-25T04:46:10;5.0;;;2.0;;
23360;SDS011;11852;50.082;18.554;2023-04-25T04:47:18;4.0;;;2.0;;
23360;SDS011;11852;50.082;18.554;2023-04-25T04:48:25;4.0;;;2.0;;
23360;SDS011;11852;50.082;18.554;2023-04-25T04:49:32;4.0;;;2.0;;
23360;SDS011;11852;50.082;18.554;2023-04-25T04:50:39;4.0;;;2.0;;
23360;SDS011;11852;50.082;18.554;2023-04-25T04:51:45;4.0;;;2.0;;
23360;SDS011;11852;50.082;18.554;2023-04-25T04:52:52;5.0;;;2.0;;
23360;SDS011;11852;50.082;18.554;2023-04-25T04:53:59;7.0;;;3.0;;
23360;SDS011;11852;50.082;18.554;2023-04-25T04:55:06;5.0;;;3.0;;
23360;SDS011;11852;50.082;18.554;2023-04-25T04:56:13;6.0;;;3.0;;
23360;SDS011;11852;50.082;18.554;2023-04-25T04:57:20;7.0;;;4.0;;
23360;SDS011;11852;50.082;18.554;2023-04-25T04:58:27;7.0;;;3.0;;
23360;SDS011;11852;50.082;18.554;2023-04-25T04:59:33;6.0;;;4.0;;
23360;SDS011;11852;50.082;18.554;2023-04-25T05:00:40;6.0;;;4.0;;
23360;SDS011;11852;50.082;18.554;2023-04-25T05:01:47;7.0;;;4.0;;
23360;SDS011;11852;50.082;18.554;2023-04-25T05:02:55;4.0;;;3.0;;
23360;SDS011;11852;50.082;18.554;2023-04-25T05:04:01;5.0;;;2.0;;
23360;SDS011;11852;50.082;18.554;2023-04-25T05:05:11;4.0;;;2.0;;
23360;SDS011;11852;50.082;18.554;2023-04-25T05:06:18;4.0;;;2.0;;
23360;SDS011;11852;50.082;18.554;2023-04-25T05:07:24;5.0;;;2.0;;
23360;SDS011;11852;50.082;18.554;2023-04-25T05:08:31;5.0;;;2.0;;
23360;SDS011;11852;50.082;18.554;2023-04-25T05:09:39;4.0;;;3.0;;
23360;SDS011;11852;50.082;18.554;2023-04-25T05:10:46;6.0;;;3.0;;
23360;SDS011;11852;50.082;18.554;2023-04-25T05:11:58;5.0;;;2.0;;
23360;SDS011;11852;50.082;18.554;2023-04-25T05:13:05;5.0;;;3.0;;
23360;SDS011;11852;50.082;18.554;2023-04-25T05:14:11;5.0;;;3.0;;
23360;SDS011;11852;50.082;18.554;2023-04-25T05:15:18;5.0;;;3.0;;
23360;SDS011;11852;50.082;18.554;2023-04-25T05:16:25;6.0;;;3.0;;
23360;SDS011;11852;50.082;18.554;2023-04-25T05:17:34;4.0;;;2.0;;
23360;SDS011;11852;50.082;18.554;2023-04-25T05:18:41;5.0;;;3.0;;
23360;SDS011;11852;50.082;18.554;2023-04-25T05:19:52;5.0;;;2.0;;
23360;SDS011;11852;50.082;18.554;2023-04-25T05:20:59;4.0;;;3.0;;
23360;SDS011;11852;50.082;18.554;2023-04-25T05:22:06;5.0;;;3.0;;
23360;SDS011;11852;50.082;18.554;2023-04-25T05:23:13;7.0;;;3.0;;
23360;SDS011;11852;50.082;18.554;2023-04-25T05:24:20;6.0;;;3.0;;
23360;SDS011;11852;50.082;18.554;2023-04-25T05:25:27;5.0;;;3.0;;
23360;SDS011;11852;50.082;18.554;2023-04-25T05:26:34;5.0;;;3.0;;
23360;SDS011;11852;50.082;18.554;2023-04-25T05:27:41;6.0;;;3.0;;
23360;SDS011;11852;50.082;18.554;2023-04-25T05:28:48;6.0;;;3.0;;
23360;SDS011;11852;50.082;18.554;2023-04-25T05:29:55;6.0;;;3.0;;
23360;SDS011;11852;50.082;18.554;2023-04-25T05:31:01;5.0;;;3.0;;
23360;SDS011;11852;50.082;18.554;2023-04-25T05:32:08;6.0;;;3.0;;
23360;SDS011;11852;50.082;18.554;2023-04-25T05:33:15;5.0;;;3.0;;
23360;SDS011;11852;50.082;18.554;2023-04-25T05:34:22;6.0;;;3.0;;
23360;SDS011;11852;50.082;18.554;2023-04-25T05:35:29;5.0;;;3.0;;
23360;SDS011;11852;50.082;18.554;2023-04-25T05:36:36;7.0;;;4.0;;
23360;SDS011;11852;50.082;18.554;2023-04-25T05:37:42;6.0;;;3.0;;
23360;SDS011;11852;50.082;18.554;2023-04-25T05:38:49;6.0;;;3.0;;
23360;SDS011;11852;50.082;18.554;2023-04-25T05:39:56;6.0;;;3.0;;
23360;SDS011;11852;50.082;18.554;2023-04-25T05:41:03;5.0;;;3.0;;
23360;SDS011;11852;50.082;18.554;2023-04-25T05:42:09;4.0;;;3.0;;
23360;SDS011;11852;50.082;18.554;2023-04-25T05:43:16;6.0;;;3.0;;
23360;SDS011;11852;50.082;18.554;2023-04-25T05:44:23;7.0;;;3.0;;
23360;SDS011;11852;50.082;18.554;2023-04-25T05:45:30;7.0;;;3.0;;
23360;SDS011;11852;50.082;18.554;2023-04-25T05:46:37;6.0;;;4.0;;
23360;SDS011;11852;50.082;18.554;2023-04-25T05:47:44;6.0;;;3.0;;
23360;SDS011;11852;50.082;18.554;2023-04-25T05:48:51;7.0;;;4.0;;
23360;SDS011;11852;50.082;18.554;2023-04-25T05:49:57;6.0;;;4.0;;
23360;SDS011;11852;50.082;18.554;2023-04-25T05:51:04;6.0;;;3.0;;
23360;SDS011;11852;50.082;18.554;2023-04-25T05:52:11;6.0;;;3.0;;
23360;SDS011;11852;50.082;18.554;2023-04-25T05:53:19;5.0;;;3.0;;
23360;SDS011;11852;50.082;18.554;2023-04-25T05:54:25;10.0;;;6.0;;
23360;SDS011;11852;50.082;18.554;2023-04-25T05:55:32;10.0;;;5.0;;
23360;SDS011;11852;50.082;18.554;2023-04-25T05:56:38;11.0;;;5.0;;
23360;SDS011;11852;50.082;18.554;2023-04-25T05:57:45;7.0;;;4.0;;
23360;SDS011;11852;50.082;18.554;2023-04-25T05:58:52;8.0;;;4.0;;
23360;SDS011;11852;50.082;18.554;2023-04-25T05:59:59;6.0;;;3.0;;
23360;SDS011;11852;50.082;18.554;2023-04-25T06:01:06;7.0;;;3.0;;
23360;SDS011;11852;50.082;18.554;2023-04-25T06:02:12;6.0;;;3.0;;
23360;SDS011;11852;50.082;18.554;2023-04-25T06:03:19;7.0;;;4.0;;
23360;SDS011;11852;50.082;18.554;2023-04-25T06:04:26;5.0;;;3.0;;
23360;SDS011;11852;50.082;18.554;2023-04-25T06:05:33;8.0;;;5.0;;
23360;SDS011;11852;50.082;18.554;2023-04-25T06:06:40;11.0;;;6.0;;
23360;SDS011;11852;50.082;18.554;2023-04-25T06:07:47;15.0;;;7.0;;
23360;SDS011;11852;50.082;18.554;2023-04-25T06:08:54;11.0;;;6.0;;
23360;SDS011;11852;50.082;18.554;2023-04-25T06:10:04;7.0;;;3.0;;
23360;SDS011;11852;50.082;18.554;2023-04-25T06:11:12;6.0;;;3.0;;
23360;SDS011;11852;50.082;18.554;2023-04-25T06:12:19;7.0;;;3.0;;
23360;SDS011;11852;50.082;18.554;2023-04-25T06:13:26;9.0;;;4.0;;
23360;SDS011;11852;50.082;18.554;2023-04-25T06:14:33;7.0;;;4.0;;
23360;SDS011;11852;50.082;18.554;2023-04-25T06:15:39;9.0;;;4.0;;
23360;SDS011;11852;50.082;18.554;2023-04-25T06:16:46;9.0;;;4.0;;
23360;SDS011;11852;50.082;18.554;2023-04-25T06:17:53;8.0;;;4.0;;
23360;SDS011;11852;50.082;18.554;2023-04-25T06:18:59;7.0;;;4.0;;
23360;SDS011;11852;50.082;18.554;2023-04-25T06:20:07;7.0;;;4.0;;
23360;SDS011;11852;50.082;18.554;2023-04-25T06:21:14;6.0;;;3.0;;
23360;SDS011;11852;50.082;18.554;2023-04-25T06:22:21;6.0;;;3.0;;
23360;SDS011;11852;50.082;18.554;2023-04-25T06:23:27;8.0;;;3.0;;
23360;SDS011;11852;50.082;18.554;2023-04-25T06:24:34;7.0;;;3.0;;
23360;SDS011;11852;50.082;18.554;2023-04-25T06:25:41;5.0;;;3.0;;
23360;SDS011;11852;50.082;18.554;2023-04-25T06:26:48;6.0;;;3.0;;
23360;SDS011;11852;50.082;18.554;2023-04-25T06:27:55;6.0;;;3.0;;
23360;SDS011;11852;50.082;18.554;2023-04-25T06:29:02;6.0;;;3.0;;
23360;SDS011;11852;50.082;18.554;2023-04-25T06:30:09;5.0;;;3.0;;
23360;SDS011;11852;50.082;18.554;2023-04-25T06:31:17;6.0;;;4.0;;
23360;SDS011;11852;50.082;18.554;2023-04-25T06:32:24;6.0;;;3.0;;
23360;SDS011;11852;50.082;18.554;2023-04-25T06:33:31;8.0;;;4.0;;
23360;SDS011;11852;50.082;18.554;2023-04-25T06:34:38;6.0;;;3.0;;
23360;SDS011;11852;50.082;18.554;2023-04-25T06:35:45;7.0;;;3.0;;
23360;SDS011;11852;50.082;18.554;2023-04-25T06:36:51;6.0;;;3.0;;
23360;SDS011;11852;50.082;18.554;2023-04-25T06:37:58;5.0;;;3.0;;
23360;SDS011;11852;50.082;18.554;2023-04-25T06:39:05;6.0;;;3.0;;
23360;SDS011;11852;50.082;18.554;2023-04-25T06:40:12;6.0;;;3.0;;
23360;SDS011;11852;50.082;18.554;2023-04-25T06:41:19;5.0;;;2.0;;
23360;SDS011;11852;50.082;18.554;2023-04-25T06:42:26;8.0;;;3.0;;
23360;SDS011;11852;50.082;18.554;2023-04-25T06:43:33;6.0;;;3.0;;
23360;SDS011;11852;50.082;18.554;2023-04-25T06:44:41;6.0;;;3.0;;
23360;SDS011;11852;50.082;18.554;2023-04-25T06:45:47;6.0;;;3.0;;
23360;SDS011;11852;50.082;18.554;2023-04-25T06:46:54;6.0;;;3.0;;
23360;SDS011;11852;50.082;18.554;2023-04-25T06:48:01;6.0;;;3.0;;
23360;SDS011;11852;50.082;18.554;2023-04-25T06:49:08;8.0;;;4.0;;
23360;SDS011;11852;50.082;18.554;2023-04-25T06:50:15;15.0;;;6.0;;
23360;SDS011;11852;50.082;18.554;2023-04-25T06:51:22;28.0;;;12.0;;